createdAt,value
2018-06-29T00:00:11.849Z,99.99
2018-06-29T00:01:11.794Z,99.99
2018-06-29T00:02:11.598Z,99.99
2018-06-29T00:03:11.481Z,99.99
2018-06-29T00:04:11.350Z,99.99
2018-06-29T00:05:11.227Z,99.99
2018-06-29T00:06:32.071Z,99.99
2018-06-29T00:07:10.984Z,99.99
2018-06-29T00:08:10.857Z,99.99
2018-06-29T00:09:10.731Z,99.99
2018-06-29T00:10:10.610Z,99.99
2018-06-29T00:11:10.483Z,99.99
2018-06-29T00:12:10.361Z,99.99
2018-06-29T00:13:10.236Z,99.99
2018-06-29T00:14:10.115Z,99.99
2018-06-29T00:15:09.987Z,99.99
2018-06-29T00:16:09.868Z,99.99
2018-06-29T00:17:09.745Z,99.99
2018-06-29T00:18:09.621Z,99.99
2018-06-29T00:19:09.490Z,99.99
2018-06-29T00:20:09.371Z,99.99
2018-06-29T00:21:09.248Z,99.99
2018-06-29T00:22:09.122Z,99.99
2018-06-29T00:23:08.998Z,99.99
2018-06-29T00:24:08.876Z,99.99
2018-06-29T00:25:09.751Z,99.99
2018-06-29T00:26:08.628Z,99.99
2018-06-29T00:27:08.509Z,99.99
2018-06-29T00:28:08.386Z,99.99
2018-06-29T00:29:08.254Z,99.99
2018-06-29T00:30:08.139Z,99.99
2018-06-29T00:31:08.007Z,99.99
2018-06-29T00:32:07.887Z,99.99
2018-06-29T00:33:07.765Z,99.99
2018-06-29T00:34:07.636Z,99.99
2018-06-29T00:35:07.602Z,99.99
2018-06-29T00:36:07.389Z,99.99
2018-06-29T00:37:07.263Z,99.99
2018-06-29T00:38:07.140Z,99.99
2018-06-29T00:39:07.018Z,99.99
2018-06-29T00:40:08.902Z,99.99
2018-06-29T00:41:06.766Z,99.99
2018-06-29T00:42:06.642Z,99.99
2018-06-29T00:43:06.520Z,99.99
2018-06-29T00:44:06.395Z,99.99
2018-06-29T00:45:06.279Z,99.99
2018-06-29T00:46:06.150Z,99.99
2018-06-29T00:47:06.027Z,99.99
2018-06-29T00:48:05.900Z,99.99
2018-06-29T00:49:05.777Z,99.99
2018-06-29T00:50:05.654Z,99.99
2018-06-29T00:51:05.527Z,99.99
2018-06-29T00:52:05.401Z,99.99
2018-06-29T00:53:05.280Z,99.99
2018-06-29T00:54:05.158Z,99.99
2018-06-29T00:55:05.029Z,99.99
2018-06-29T00:56:04.910Z,99.99
2018-06-29T00:57:04.786Z,99.99
2018-06-29T00:58:04.660Z,99.99
2018-06-29T00:59:04.535Z,99.99
2018-06-29T01:00:04.410Z,99.99
2018-06-29T01:01:04.289Z,99.99
2018-06-29T01:02:04.163Z,99.99
2018-06-29T01:03:04.039Z,99.99
2018-06-29T01:04:03.915Z,99.99
2018-06-29T01:05:03.797Z,99.99
2018-06-29T01:06:03.665Z,99.99
2018-06-29T01:07:03.543Z,99.99
2018-06-29T01:08:03.423Z,99.99
2018-06-29T01:09:03.298Z,99.99
2018-06-29T01:10:03.167Z,99.99
2018-06-29T01:11:03.045Z,99.99
2018-06-29T01:12:02.923Z,99.99
2018-06-29T01:13:02.795Z,99.99
2018-06-29T01:14:02.673Z,99.99
2018-06-29T01:15:02.550Z,99.99
2018-06-29T01:16:02.430Z,99.99
2018-06-29T01:17:02.299Z,99.99
2018-06-29T01:18:02.176Z,99.99
2018-06-29T01:19:02.054Z,99.99
2018-06-29T01:20:01.926Z,99.99
2018-06-29T01:21:01.804Z,99.99
2018-06-29T01:22:01.678Z,99.99
2018-06-29T01:23:01.565Z,99.99
2018-06-29T01:24:01.437Z,99.99
2018-06-29T01:25:01.310Z,99.99
2018-06-29T01:26:01.189Z,99.99
2018-06-29T01:27:01.065Z,99.99
2018-06-29T01:28:00.933Z,99.99
2018-06-29T01:29:04.677Z,99.99
2018-06-29T01:30:00.690Z,99.99
2018-06-29T01:31:00.563Z,99.99
2018-06-29T01:32:00.440Z,99.99
2018-06-29T01:33:00.322Z,99.99
2018-06-29T01:34:00.196Z,99.99
2018-06-29T01:35:00.069Z,99.99
2018-06-29T01:35:59.945Z,99.99
2018-06-29T01:36:59.826Z,99.99
2018-06-29T01:37:59.699Z,99.99
2018-06-29T01:38:59.572Z,99.99
2018-06-29T01:39:59.446Z,99.99
2018-06-29T01:41:02.149Z,99.99
2018-06-29T01:41:59.201Z,99.99
2018-06-29T01:42:59.079Z,99.99
2018-06-29T01:43:58.952Z,99.99
2018-06-29T01:44:58.833Z,99.99
2018-06-29T01:45:58.703Z,99.99
2018-06-29T01:46:58.583Z,99.99
2018-06-29T01:48:05.157Z,99.99
2018-06-29T01:48:58.338Z,99.99
2018-06-29T01:49:58.210Z,99.99
2018-06-29T01:50:58.085Z,99.99
2018-06-29T01:51:57.964Z,99.99
2018-06-29T01:52:57.850Z,99.99
2018-06-29T01:53:57.720Z,99.99
2018-06-29T01:54:57.592Z,99.99
2018-06-29T01:55:57.466Z,99.99
2018-06-29T01:56:57.342Z,99.99
2018-06-29T01:57:57.221Z,99.99
2018-06-29T01:58:57.096Z,99.99
2018-06-29T01:59:56.967Z,99.99
2018-06-29T02:00:56.844Z,99.99
2018-06-29T02:01:56.721Z,99.99
2018-06-29T02:02:57.598Z,99.99
2018-06-29T02:03:56.478Z,99.99
2018-06-29T02:04:56.349Z,99.99
2018-06-29T02:05:56.226Z,99.99
2018-06-29T02:06:56.102Z,99.99
2018-06-29T02:07:56.034Z,99.99
2018-06-29T02:08:55.850Z,99.99
2018-06-29T02:09:55.734Z,99.99
2018-06-29T02:10:55.603Z,99.99
2018-06-29T02:11:55.478Z,99.99
2018-06-29T02:12:55.357Z,99.99
2018-06-29T02:13:55.231Z,99.99
2018-06-29T02:14:55.102Z,99.99
2018-06-29T02:15:54.979Z,99.99
2018-06-29T02:16:56.858Z,99.99
2018-06-29T02:17:54.729Z,99.99
2018-06-29T02:18:54.613Z,99.99
2018-06-29T02:19:54.479Z,99.99
2018-06-29T02:20:54.357Z,99.99
2018-06-29T02:21:54.229Z,99.99
2018-06-29T02:22:54.108Z,99.99
2018-06-29T02:23:53.983Z,99.99
2018-06-29T02:24:53.864Z,99.99
2018-06-29T02:25:53.733Z,99.99
2018-06-29T02:26:53.612Z,99.99
2018-06-29T02:27:53.485Z,99.99
2018-06-29T02:28:53.360Z,99.99
2018-06-29T02:29:53.234Z,99.99
2018-06-29T02:30:53.166Z,99.99
2018-06-29T02:32:07.672Z,99.99
2018-06-29T02:32:52.860Z,99.99
2018-06-29T02:33:52.735Z,99.99
2018-06-29T02:34:53.167Z,99.99
2018-06-29T02:35:52.485Z,99.99
2018-06-29T02:36:52.363Z,99.99
2018-06-29T02:37:52.239Z,99.99
2018-06-29T02:38:59.247Z,99.99
2018-06-29T02:40:44.810Z,99.99
2018-06-29T02:41:44.643Z,99.99
2018-06-29T02:43:37.309Z,99.99
2018-06-29T02:44:37.177Z,99.99
2018-06-29T02:46:30.729Z,99.99
2018-06-29T02:47:30.556Z,99.99
2018-06-29T02:49:23.247Z,99.99
2018-06-29T02:50:23.090Z,99.99
2018-06-29T02:52:15.808Z,99.99
2018-06-29T02:53:15.629Z,99.99
2018-06-29T02:55:08.292Z,99.99
2018-06-29T02:56:08.221Z,99.99
2018-06-29T02:58:00.908Z,99.99
2018-06-29T02:59:00.688Z,99.99
2018-06-29T03:00:53.357Z,99.99
2018-06-29T03:01:53.224Z,99.99
2018-06-29T03:02:53.096Z,99.99
2018-06-29T03:03:52.967Z,99.99
2018-06-29T03:04:52.849Z,99.99
2018-06-29T03:05:52.723Z,99.99
2018-06-29T03:06:52.592Z,99.99
2018-06-29T03:07:52.470Z,99.99
2018-06-29T03:08:52.344Z,99.99
2018-06-29T03:09:52.221Z,99.99
2018-06-29T03:10:52.105Z,99.99
2018-06-29T03:11:51.971Z,99.99
2018-06-29T03:12:51.848Z,99.99
2018-06-29T03:13:51.722Z,99.99
2018-06-29T03:14:51.591Z,99.99
2018-06-29T03:15:51.470Z,99.99
2018-06-29T03:16:51.342Z,99.99
2018-06-29T03:17:51.216Z,99.99
2018-06-29T03:18:51.095Z,99.99
2018-06-29T03:19:57.486Z,99.99
2018-06-29T03:20:50.838Z,99.99
2018-06-29T03:21:50.715Z,99.99
2018-06-29T03:22:50.592Z,99.99
2018-06-29T03:23:50.462Z,99.99
2018-06-29T03:24:50.336Z,99.99
2018-06-29T03:25:50.225Z,99.99
2018-06-29T03:26:50.096Z,99.99
2018-06-29T03:27:49.959Z,99.99
2018-06-29T03:28:49.836Z,99.99
2018-06-29T03:29:49.714Z,99.99
2018-06-29T03:30:49.592Z,99.99
2018-06-29T03:31:49.460Z,99.99
2018-06-29T03:32:49.336Z,99.99
2018-06-29T03:33:49.214Z,99.99
2018-06-29T03:34:49.083Z,99.99
2018-06-29T03:35:48.960Z,99.99
2018-06-29T03:36:48.834Z,99.99
2018-06-29T03:37:48.709Z,99.99
2018-06-29T03:38:48.581Z,99.99
2018-06-29T03:39:48.454Z,99.99
2018-06-29T03:40:48.330Z,99.99
2018-06-29T03:41:48.201Z,99.99
2018-06-29T03:42:48.073Z,99.99
2018-06-29T03:43:47.951Z,99.99
2018-06-29T03:44:47.827Z,99.99
2018-06-29T03:45:47.700Z,99.99
2018-06-29T03:46:47.571Z,99.99
2018-06-29T03:47:47.449Z,99.99
2018-06-29T03:48:47.323Z,99.99
2018-06-29T03:49:47.197Z,99.99
2018-06-29T03:50:47.077Z,99.99
2018-06-29T03:51:46.947Z,99.99
2018-06-29T03:52:48.490Z,99.99
2018-06-29T03:53:48.483Z,99.99
2018-06-29T03:54:48.481Z,99.99
2018-06-29T03:55:47.982Z,99.99
2018-06-29T03:56:47.982Z,99.99
2018-06-29T03:57:48.340Z,99.99
2018-06-29T03:58:46.070Z,99.99
2018-06-29T03:59:45.944Z,99.99
2018-06-29T04:00:47.481Z,99.99
2018-06-29T04:01:47.511Z,99.99
2018-06-29T04:02:45.558Z,99.99
2018-06-29T04:03:51.994Z,99.99
2018-06-29T04:04:46.992Z,99.99
2018-06-29T04:05:45.185Z,99.99
2018-06-29T04:06:46.982Z,99.99
2018-06-29T04:07:46.482Z,99.99
2018-06-29T04:08:51.493Z,99.99
2018-06-29T04:09:44.681Z,99.99
2018-06-29T04:10:46.482Z,99.99
2018-06-29T04:11:44.450Z,99.99
2018-06-29T04:12:46.320Z,99.99
2018-06-29T04:13:46.216Z,99.99
2018-06-29T04:14:44.049Z,99.99
2018-06-29T04:15:44.839Z,99.99
2018-06-29T04:16:43.800Z,99.99
2018-06-29T04:17:43.757Z,99.99
2018-06-29T04:18:43.545Z,99.99
2018-06-29T04:19:43.419Z,99.99
2018-06-29T04:20:43.297Z,99.99
2018-06-29T04:21:43.177Z,99.99
2018-06-29T04:22:43.044Z,99.99
2018-06-29T04:23:42.919Z,99.99
2018-06-29T04:24:42.790Z,99.99
2018-06-29T04:25:42.668Z,99.99
2018-06-29T04:26:42.539Z,99.99
2018-06-29T04:27:42.413Z,99.99
2018-06-29T04:28:42.287Z,99.99
2018-06-29T04:29:42.160Z,99.99
2018-06-29T04:30:42.423Z,99.99
2018-06-29T04:31:42.092Z,99.99
2018-06-29T04:32:41.813Z,99.99
2018-06-29T04:33:41.657Z,99.99
2018-06-29T04:34:43.489Z,99.99
2018-06-29T04:35:42.989Z,99.99
2018-06-29T04:36:41.279Z,99.99
2018-06-29T04:37:41.160Z,99.99
2018-06-29T04:38:41.030Z,99.99
2018-06-29T04:39:40.904Z,99.99
2018-06-29T04:40:40.777Z,99.99
2018-06-29T04:41:40.652Z,99.99
2018-06-29T04:42:42.489Z,99.99
2018-06-29T04:43:40.493Z,99.99
2018-06-29T04:44:40.810Z,99.99
2018-06-29T04:45:40.149Z,99.99
2018-06-29T04:46:40.023Z,99.99
2018-06-29T04:47:39.903Z,99.99
2018-06-29T04:48:39.775Z,99.99
2018-06-29T04:49:42.500Z,99.99
2018-06-29T04:50:39.522Z,99.99
2018-06-29T04:51:39.396Z,99.99
2018-06-29T04:52:39.272Z,99.99
2018-06-29T04:53:39.150Z,99.99
2018-06-29T04:54:39.026Z,99.99
2018-06-29T04:55:38.898Z,99.99
2018-06-29T04:56:38.773Z,99.99
2018-06-29T04:57:38.650Z,99.69
2018-06-29T04:58:38.521Z,99.75
2018-06-29T04:59:39.993Z,99.37
2018-06-29T05:00:38.271Z,99.79
2018-06-29T05:01:38.147Z,99.55
2018-06-29T05:02:39.993Z,99.55
2018-06-29T05:03:37.899Z,99.46
2018-06-29T05:04:37.773Z,99.37
2018-06-29T05:05:37.647Z,99.18
2018-06-29T05:06:37.523Z,99.18
2018-06-29T05:07:37.403Z,98.75
2018-06-29T05:08:39.000Z,98.65
2018-06-29T05:09:38.995Z,98.94
2018-06-29T05:10:37.027Z,98.08
2018-06-29T05:11:36.904Z,97.70
2018-06-29T05:12:38.497Z,97.22
2018-06-29T05:13:37.522Z,97.80
2018-06-29T05:14:36.524Z,97.51
2018-06-29T05:15:38.005Z,97.80
2018-06-29T05:16:36.276Z,97.51
2018-06-29T05:17:36.156Z,97.41
2018-06-29T05:18:37.998Z,97.61
2018-06-29T05:19:38.499Z,97.61
2018-06-29T05:20:35.776Z,97.80
2018-06-29T05:21:37.499Z,97.03
2018-06-29T05:22:35.528Z,97.32
2018-06-29T05:23:35.408Z,96.84
2018-06-29T05:24:35.279Z,97.70
2018-06-29T05:25:35.159Z,97.08
2018-06-29T05:26:35.037Z,97.17
2018-06-29T05:27:34.911Z,96.61
2018-06-29T05:28:34.841Z,96.94
2018-06-29T05:29:34.656Z,96.75
2018-06-29T05:30:34.538Z,96.46
2018-06-29T05:31:34.413Z,97.03
2018-06-29T05:32:34.287Z,96.65
2018-06-29T05:33:34.165Z,95.98
2018-06-29T05:34:34.042Z,97.75
2018-06-29T05:35:33.910Z,97.08
2018-06-29T05:36:33.790Z,96.03
2018-06-29T05:37:33.667Z,95.94
2018-06-29T05:38:33.540Z,95.65
2018-06-29T05:39:33.415Z,95.75
2018-06-29T05:40:36.003Z,95.75
2018-06-29T05:41:33.200Z,95.84
2018-06-29T05:42:35.039Z,95.84
2018-06-29T05:43:32.920Z,94.98
2018-06-29T05:44:32.809Z,96.22
2018-06-29T05:45:32.672Z,94.60
2018-06-29T05:46:32.549Z,94.70
2018-06-29T05:47:32.424Z,94.70
2018-06-29T05:48:32.300Z,95.08
2018-06-29T05:49:32.177Z,95.84
2018-06-29T05:50:32.053Z,95.56
2018-06-29T05:51:31.930Z,96.03
2018-06-29T05:52:31.802Z,96.13
2018-06-29T05:53:33.507Z,95.75
2018-06-29T05:54:33.506Z,95.37
2018-06-29T05:55:31.431Z,95.89
2018-06-29T05:56:31.309Z,95.12
2018-06-29T05:57:33.023Z,94.17
2018-06-29T05:58:31.063Z,94.27
2018-06-29T05:59:30.934Z,93.88
2018-06-29T06:00:30.814Z,93.31
2018-06-29T06:01:30.690Z,93.26
2018-06-29T06:02:30.568Z,92.50
2018-06-29T06:03:30.442Z,93.17
2018-06-29T06:04:32.040Z,92.79
2018-06-29T06:05:30.193Z,92.60
2018-06-29T06:06:30.068Z,92.60
2018-06-29T06:07:29.947Z,92.93
2018-06-29T06:08:29.826Z,92.83
2018-06-29T06:09:29.703Z,92.16
2018-06-29T06:10:29.578Z,91.97
2018-06-29T06:11:29.455Z,92.07
2018-06-29T06:12:29.329Z,90.64
2018-06-29T06:13:29.231Z,90.64
2018-06-29T06:14:31.012Z,91.50
2018-06-29T06:15:28.959Z,91.30
2018-06-29T06:16:28.836Z,91.59
2018-06-29T06:17:28.715Z,90.35
2018-06-29T06:18:28.592Z,90.64
2018-06-29T06:19:28.467Z,90.45
2018-06-29T06:20:28.354Z,90.25
2018-06-29T06:21:28.221Z,91.11
2018-06-29T06:22:28.098Z,91.02
2018-06-29T06:23:27.975Z,91.88
2018-06-29T06:24:27.851Z,91.88
2018-06-29T06:25:27.731Z,91.88
2018-06-29T06:26:27.608Z,91.30
2018-06-29T06:27:27.485Z,91.50
2018-06-29T06:28:27.369Z,91.25
2018-06-29T06:29:29.014Z,89.68
2018-06-29T06:30:27.114Z,90.54
2018-06-29T06:31:26.993Z,90.73
2018-06-29T06:32:29.565Z,90.11
2018-06-29T06:33:26.745Z,90.01
2018-06-29T06:34:26.625Z,90.68
2018-06-29T06:35:26.501Z,89.82
2018-06-29T06:36:26.376Z,89.92
2018-06-29T06:37:26.254Z,90.30
2018-06-29T06:38:26.131Z,89.10
2018-06-29T06:39:26.010Z,88.87
2018-06-29T06:40:27.517Z,89.53
2018-06-29T06:41:25.764Z,90.53
2018-06-29T06:42:27.520Z,88.91
2018-06-29T06:43:25.518Z,88.81
2018-06-29T06:44:25.397Z,89.20
2018-06-29T06:45:25.276Z,88.05
2018-06-29T06:46:25.151Z,88.24
2018-06-29T06:47:25.028Z,87.71
2018-06-29T06:48:24.906Z,87.04
2018-06-29T06:49:24.784Z,87.29
2018-06-29T06:50:24.666Z,88.91
2018-06-29T06:51:24.542Z,88.91
2018-06-29T06:52:24.417Z,88.24
2018-06-29T06:53:24.294Z,88.43
2018-06-29T06:54:26.033Z,86.80
2018-06-29T06:55:24.051Z,86.23
2018-06-29T06:56:23.932Z,87.19
2018-06-29T06:57:23.806Z,88.15
2018-06-29T06:58:23.685Z,86.52
2018-06-29T06:59:23.615Z,85.80
2018-06-29T07:00:23.445Z,86.08
2018-06-29T07:01:23.319Z,84.42
2018-06-29T07:02:23.197Z,84.32
2018-06-29T07:03:23.078Z,86.90
2018-06-29T07:04:22.953Z,85.57
2018-06-29T07:05:22.831Z,86.37
2018-06-29T07:06:22.709Z,85.51
2018-06-29T07:07:22.584Z,85.51
2018-06-29T07:08:22.466Z,84.17
2018-06-29T07:09:22.342Z,85.80
2018-06-29T07:10:22.897Z,85.71
2018-06-29T07:11:22.100Z,86.28
2018-06-29T07:12:22.049Z,87.71
2018-06-29T07:13:21.853Z,84.50
2018-06-29T07:14:21.734Z,82.74
2018-06-29T07:15:21.609Z,84.12
2018-06-29T07:16:21.490Z,81.97
2018-06-29T07:17:21.369Z,82.35
2018-06-29T07:18:21.316Z,84.17
2018-06-29T07:19:21.121Z,84.65
2018-06-29T07:20:20.999Z,84.31
2018-06-29T07:21:20.880Z,82.11
2018-06-29T07:22:20.753Z,80.58
2018-06-29T07:23:20.633Z,80.48
2018-06-29T07:24:20.513Z,80.67
2018-06-29T07:25:20.391Z,82.49
2018-06-29T07:26:20.267Z,81.77
2018-06-29T07:27:20.147Z,78.80
2018-06-29T07:28:20.027Z,78.03
2018-06-29T07:29:19.904Z,77.08
2018-06-29T07:30:19.780Z,78.32
2018-06-29T07:31:21.533Z,77.75
2018-06-29T07:32:19.539Z,78.51
2018-06-29T07:33:19.414Z,78.03
2018-06-29T07:34:19.295Z,76.60
2018-06-29T07:35:19.174Z,77.65
2018-06-29T07:36:19.052Z,76.79
2018-06-29T07:37:18.930Z,76.82
2018-06-29T07:38:18.808Z,77.11
2018-06-29T07:39:18.901Z,75.35
2018-06-29T07:40:20.533Z,74.68
2018-06-29T07:41:18.448Z,75.73
2018-06-29T07:42:18.324Z,77.65
2018-06-29T07:43:18.204Z,77.78
2018-06-29T07:44:18.081Z,76.50
2018-06-29T07:45:17.966Z,80.62
2018-06-29T07:46:17.837Z,78.07
2018-06-29T07:47:20.536Z,78.17
2018-06-29T07:48:17.597Z,75.93
2018-06-29T07:49:17.477Z,77.75
2018-06-29T07:50:17.354Z,75.58
2018-06-29T07:51:17.231Z,76.77
2018-06-29T07:52:17.114Z,73.80
2018-06-29T07:53:16.993Z,72.55
2018-06-29T07:54:16.868Z,73.07
2018-06-29T07:55:18.538Z,72.30
2018-06-29T07:56:18.589Z,72.27
2018-06-29T07:57:16.508Z,71.40
2018-06-29T07:58:16.520Z,72.27
2018-06-29T07:59:16.272Z,70.64
2018-06-29T08:00:16.145Z,73.41
2018-06-29T08:01:16.024Z,71.88
2018-06-29T08:02:17.540Z,72.27
2018-06-29T08:03:15.781Z,72.17
2018-06-29T08:04:15.659Z,71.40
2018-06-29T08:05:18.041Z,72.45
2018-06-29T08:06:15.419Z,71.40
2018-06-29T08:07:15.298Z,71.21
2018-06-29T08:08:15.179Z,72.07
2018-06-29T08:09:15.059Z,70.60
2018-06-29T08:10:14.935Z,70.50
2018-06-29T08:11:16.541Z,70.79
2018-06-29T08:12:14.697Z,70.92
2018-06-29T08:13:14.576Z,70.73
2018-06-29T08:14:14.457Z,69.68
2018-06-29T08:15:14.336Z,69.58
2018-06-29T08:16:14.212Z,70.06
2018-06-29T08:17:14.091Z,70.92
2018-06-29T08:18:13.968Z,70.83
2018-06-29T08:19:13.849Z,70.00
2018-06-29T08:20:13.774Z,68.08
2018-06-29T08:21:13.608Z,68.18
2018-06-29T08:22:13.484Z,69.52
2018-06-29T08:23:15.045Z,68.08
2018-06-29T08:24:13.280Z,67.41
2018-06-29T08:25:13.124Z,66.35
2018-06-29T08:26:13.009Z,67.41
2018-06-29T08:27:12.883Z,68.08
2018-06-29T08:28:12.761Z,67.38
2018-06-29T08:29:12.643Z,68.27
2018-06-29T08:30:12.519Z,68.85
2018-06-29T08:31:12.399Z,68.98
2018-06-29T08:32:12.277Z,69.97
2018-06-29T08:33:12.158Z,68.95
2018-06-29T08:34:12.038Z,67.32
2018-06-29T08:35:12.049Z,66.84
2018-06-29T08:36:11.800Z,64.72
2018-06-29T08:37:13.554Z,64.40
2018-06-29T08:38:11.558Z,66.33
2018-06-29T08:39:11.437Z,66.71
2018-06-29T08:40:11.320Z,66.42
2018-06-29T08:41:11.201Z,66.58
2018-06-29T08:42:13.050Z,67.76
2018-06-29T08:43:10.958Z,69.56
2018-06-29T08:44:10.885Z,68.53
2018-06-29T08:45:10.718Z,66.71
2018-06-29T08:46:10.597Z,66.23
2018-06-29T08:47:10.635Z,67.63
2018-06-29T08:48:10.358Z,68.02
2018-06-29T08:49:10.244Z,69.07
2018-06-29T08:50:10.118Z,70.70
2018-06-29T08:51:09.998Z,68.05
2018-06-29T08:52:09.908Z,67.29
2018-06-29T08:53:09.761Z,67.19
2018-06-29T08:54:09.637Z,67.25
2018-06-29T08:55:09.529Z,66.96
2018-06-29T08:56:09.401Z,66.52
2018-06-29T08:57:09.280Z,66.13
2018-06-29T08:58:09.159Z,67.47
2018-06-29T08:59:09.042Z,70.87
2018-06-29T09:00:10.555Z,67.51
2018-06-29T09:01:08.801Z,65.01
2018-06-29T09:02:08.678Z,66.49
2018-06-29T09:03:08.562Z,64.31
2018-06-29T09:04:08.438Z,61.78
2018-06-29T09:05:08.325Z,63.51
2018-06-29T09:06:08.204Z,65.37
2018-06-29T09:07:08.950Z,64.31
2018-06-29T09:08:07.965Z,62.84
2018-06-29T09:09:07.843Z,63.41
2018-06-29T09:10:07.723Z,64.28
2018-06-29T09:11:07.648Z,64.18
2018-06-29T09:12:07.489Z,63.70
2018-06-29T09:13:07.365Z,62.42
2018-06-29T09:14:10.064Z,64.34
2018-06-29T09:15:07.127Z,64.63
2018-06-29T09:16:07.008Z,64.15
2018-06-29T09:17:06.890Z,64.15
2018-06-29T09:18:06.766Z,64.85
2018-06-29T09:19:06.709Z,63.51
2018-06-29T09:20:06.532Z,63.79
2018-06-29T09:21:06.415Z,63.02
2018-06-29T09:22:06.292Z,63.02
2018-06-29T09:23:06.176Z,63.70
2018-06-29T09:24:06.054Z,62.93
2018-06-29T09:25:05.935Z,63.60
2018-06-29T09:26:05.814Z,63.99
2018-06-29T09:27:05.703Z,63.60
2018-06-29T09:28:07.566Z,64.09
2018-06-29T09:29:05.459Z,62.96
2018-06-29T09:30:05.400Z,61.68
2018-06-29T09:31:05.217Z,61.97
2018-06-29T09:32:05.100Z,63.70
2018-06-29T09:33:04.976Z,63.89
2018-06-29T09:34:04.857Z,63.83
2018-06-29T09:35:04.743Z,62.77
2018-06-29T09:36:04.953Z,62.19
2018-06-29T09:37:04.501Z,61.71
2018-06-29T09:38:04.383Z,62.71
2018-06-29T09:39:04.264Z,60.97
2018-06-29T09:40:04.144Z,62.35
2018-06-29T09:41:04.026Z,61.87
2018-06-29T09:42:03.904Z,62.19
2018-06-29T09:43:03.786Z,60.27
2018-06-29T09:44:03.667Z,59.49
2018-06-29T09:45:03.549Z,60.46
2018-06-29T09:46:03.431Z,59.81
2018-06-29T09:47:03.312Z,56.99
2018-06-29T09:48:03.361Z,57.86
2018-06-29T09:49:03.073Z,57.45
2018-06-29T09:50:02.957Z,59.47
2018-06-29T09:51:02.836Z,58.12
2018-06-29T09:52:02.717Z,59.40
2018-06-29T09:53:02.603Z,59.69
2018-06-29T09:54:02.625Z,58.82
2018-06-29T09:55:02.371Z,58.37
2018-06-29T09:56:02.250Z,57.98
2018-06-29T09:57:02.130Z,58.27
2018-06-29T09:58:02.009Z,58.05
2018-06-29T09:59:01.891Z,60.68
2018-06-29T10:00:01.775Z,59.11
2018-06-29T10:01:01.668Z,58.12
2018-06-29T10:02:01.534Z,60.42
2018-06-29T10:03:01.420Z,62.29
2018-06-29T10:04:01.297Z,59.20
2018-06-29T10:05:01.181Z,57.54
2018-06-29T10:06:01.065Z,59.59
2018-06-29T10:07:00.955Z,58.92
2018-06-29T10:08:00.826Z,58.82
2018-06-29T10:09:00.708Z,58.05
2018-06-29T10:10:00.590Z,58.44
2018-06-29T10:11:00.472Z,60.49
2018-06-29T10:12:00.356Z,59.81
2018-06-29T10:13:00.236Z,60.00
2018-06-29T10:14:00.141Z,60.52
2018-06-29T10:15:00.004Z,58.47
2018-06-29T10:15:59.884Z,59.72
2018-06-29T10:16:59.767Z,59.36
2018-06-29T10:17:59.649Z,57.62
2018-06-29T10:18:59.529Z,58.49
2018-06-29T10:19:59.473Z,59.17
2018-06-29T10:20:59.295Z,57.50
2018-06-29T10:21:59.216Z,58.24
2018-06-29T10:22:59.063Z,59.88
2018-06-29T10:23:58.943Z,59.62
2018-06-29T10:24:58.826Z,58.53
2018-06-29T10:25:58.706Z,60.00
2018-06-29T10:26:58.590Z,59.84
2018-06-29T10:27:58.500Z,59.00
2018-06-29T10:28:58.355Z,57.14
2018-06-29T10:29:58.238Z,59.39
2018-06-29T10:30:58.121Z,57.68
2018-06-29T10:31:58.006Z,56.52
2018-06-29T10:32:57.885Z,55.85
2018-06-29T10:33:57.771Z,55.27
2018-06-29T10:34:57.652Z,54.02
2018-06-29T10:35:57.556Z,55.46
2018-06-29T10:36:57.419Z,56.72
2018-06-29T10:37:57.303Z,56.14
2018-06-29T10:38:59.089Z,57.49
2018-06-29T10:39:57.069Z,58.10
2018-06-29T10:40:56.952Z,55.68
2018-06-29T10:41:56.837Z,54.72
2018-06-29T10:42:58.589Z,55.56
2018-06-29T10:43:56.604Z,57.17
2018-06-29T10:44:56.523Z,56.57
2018-06-29T10:45:56.369Z,57.37
2018-06-29T10:46:56.256Z,58.62
2018-06-29T10:47:56.135Z,56.72
2018-06-29T10:48:56.020Z,56.33
2018-06-29T10:49:55.904Z,54.98
2018-06-29T10:50:55.789Z,55.36
2018-06-29T10:51:55.669Z,55.46
2018-06-29T10:52:55.654Z,54.31
2018-06-29T10:53:55.440Z,54.53
2018-06-29T10:54:55.324Z,57.04
2018-06-29T10:55:55.208Z,57.42
2018-06-29T10:56:55.090Z,55.62
2018-06-29T10:57:54.976Z,56.03
2018-06-29T10:58:54.864Z,54.17
2018-06-29T10:59:54.744Z,53.56
2018-06-29T11:00:54.633Z,56.74
2018-06-29T11:01:54.520Z,56.36
2018-06-29T11:02:54.397Z,55.59
2018-06-29T11:03:54.987Z,56.36
2018-06-29T11:04:54.169Z,55.13
2018-06-29T11:05:54.054Z,55.55
2018-06-29T11:06:53.937Z,54.19
2018-06-29T11:07:53.822Z,54.55
2018-06-29T11:08:53.709Z,56.41
2018-06-29T11:09:53.589Z,52.33
2018-06-29T11:10:53.480Z,53.42
2018-06-29T11:11:53.360Z,54.19
2018-06-29T11:12:53.245Z,55.26
2018-06-29T11:13:53.128Z,53.35
2018-06-29T11:14:53.017Z,53.74
2018-06-29T11:15:52.902Z,51.32
2018-06-29T11:16:52.785Z,51.61
2018-06-29T11:17:52.672Z,52.58
2018-06-29T11:18:52.554Z,52.77
2018-06-29T11:19:52.445Z,52.67
2018-06-29T11:20:52.331Z,52.36
2018-06-29T11:21:52.215Z,52.14
2018-06-29T11:22:52.100Z,52.33
2018-06-29T11:23:51.992Z,53.59
2018-06-29T11:24:51.873Z,54.24
2018-06-29T11:25:51.756Z,53.53
2018-06-29T11:26:51.640Z,54.09
2018-06-29T11:27:51.532Z,54.06
2018-06-29T11:28:51.411Z,55.22
2018-06-29T11:29:51.297Z,57.53
2018-06-29T11:30:51.186Z,57.12
2018-06-29T11:31:51.066Z,57.21
2018-06-29T11:32:50.999Z,57.21
2018-06-29T11:33:50.841Z,57.56
2018-06-29T11:34:50.724Z,56.79
2018-06-29T11:35:50.607Z,55.34
2018-06-29T11:36:50.552Z,56.74
2018-06-29T11:37:50.382Z,55.33
2018-06-29T11:38:50.260Z,55.45
2018-06-29T11:39:50.146Z,54.68
2018-06-29T11:40:50.032Z,53.45
2018-06-29T11:41:49.913Z,53.16
2018-06-29T11:42:49.800Z,52.75
2018-06-29T11:43:49.682Z,52.26
2018-06-29T11:44:49.568Z,51.46
2018-06-29T11:45:49.455Z,52.17
2018-06-29T11:46:49.339Z,51.97
2018-06-29T11:47:49.223Z,52.00
2018-06-29T11:48:49.110Z,52.39
2018-06-29T11:49:48.992Z,52.97
2018-06-29T11:50:48.878Z,51.23
2018-06-29T11:51:48.763Z,49.90
2018-06-29T11:52:48.651Z,49.44
2018-06-29T11:53:48.536Z,49.75
2018-06-29T11:54:48.423Z,49.58
2018-06-29T11:55:48.309Z,48.13
2018-06-29T11:56:48.193Z,48.74
2018-06-29T11:57:48.076Z,49.19
2018-06-29T11:58:47.962Z,47.74
2018-06-29T11:59:47.848Z,49.82
2018-06-29T12:00:47.736Z,47.77
2018-06-29T12:01:47.621Z,47.57
2018-06-29T12:02:47.507Z,48.93
2018-06-29T12:03:47.395Z,49.22
2018-06-29T12:04:47.281Z,50.04
2018-06-29T12:05:47.165Z,47.83
2018-06-29T12:06:47.057Z,45.92
2018-06-29T12:07:46.938Z,45.85
2018-06-29T12:08:46.828Z,47.40
2018-06-29T12:09:46.713Z,47.38
2018-06-29T12:10:46.602Z,48.15
2018-06-29T12:11:46.487Z,49.07
2018-06-29T12:12:46.378Z,50.45
2018-06-29T12:13:46.259Z,49.37
2018-06-29T12:14:46.167Z,49.49
2018-06-29T12:15:46.035Z,48.93
2018-06-29T12:16:45.923Z,49.63
2018-06-29T12:17:45.808Z,47.33
2018-06-29T12:18:47.622Z,46.36
2018-06-29T12:19:45.588Z,45.87
2018-06-29T12:20:45.534Z,46.69
2018-06-29T12:21:45.356Z,44.42
2018-06-29T12:22:45.276Z,45.21
2018-06-29T12:23:45.131Z,44.65
2018-06-29T12:24:45.022Z,46.26
2018-06-29T12:25:44.902Z,46.48
2018-06-29T12:26:44.789Z,46.36
2018-06-29T12:27:44.679Z,46.45
2018-06-29T12:28:44.564Z,46.89
2018-06-29T12:29:44.450Z,44.92
2018-06-29T12:30:44.341Z,46.36
2018-06-29T12:31:45.010Z,46.41
2018-06-29T12:32:44.115Z,44.38
2018-06-29T12:33:44.004Z,43.82
2018-06-29T12:34:43.890Z,42.87
2018-06-29T12:35:43.778Z,41.88
2018-06-29T12:36:43.668Z,42.91
2018-06-29T12:37:43.550Z,44.09
2018-06-29T12:38:43.441Z,44.64
2018-06-29T12:39:43.325Z,45.15
2018-06-29T12:40:43.216Z,46.48
2018-06-29T12:41:43.102Z,44.75
2018-06-29T12:42:42.992Z,44.92
2018-06-29T12:43:42.876Z,43.48
2018-06-29T12:44:42.765Z,42.97
2018-06-29T12:45:42.650Z,42.76
2018-06-29T12:46:42.540Z,43.01
2018-06-29T12:47:42.435Z,41.78
2018-06-29T12:48:42.320Z,42.50
2018-06-29T12:49:42.206Z,41.80
2018-06-29T12:50:42.100Z,41.80
2018-06-29T12:51:41.988Z,40.78
2018-06-29T12:52:41.874Z,40.97
2018-06-29T12:53:41.765Z,41.34
2018-06-29T12:54:41.651Z,42.00
2018-06-29T12:55:41.552Z,42.56
2018-06-29T12:56:41.432Z,41.93
2018-06-29T12:57:41.370Z,42.36